Current KBOS METAR: KBOS 220454Z 22005KT 10SM OVC090 M01/M06 A2959 RMK AO2 SLP018 T10061061 400001061 $

Landing Runways: 22L

Departing Runways: 22L, 22R